Time;durP1;ratioP1;P1;durP2;ratioP2;P2;SDS_P1;SDS_P2;PMS_P1;PMS_P2;Temp;Humidity;BMP_temperature;BMP_pressure;BME280_temperature;BME280_humidity;BME280_pressure;Samples;Min_cycle;Max_cycle;Signal;HPM_P1;HPM_P2
2022/08/15 00:00:33;;;;;;;8.93;6.57;;;;;;;24.03;91.57;100434.84;6153308;23;20032;-77
2022/08/15 00:03:04;;;;;;;9.07;8.10;;;;;;;23.98;92.18;100435.09;6174484;23;20024;-77
2022/08/15 00:05:40;;;;;;;7.82;6.82;;;;;;;23.96;92.30;100439.69;6164875;23;20461;-77
2022/08/15 00:08:10;;;;;;;8.20;7.50;;;;;;;23.94;92.80;100430.84;6182922;23;20016;-77
2022/08/15 00:11:26;;;;;;;8.35;6.72;;;;;;;23.92;92.97;100430.09;6183743;23;20028;-77
2022/08/15 00:14:04;;;;;;;8.43;7.10;;;;;;;23.89;92.90;100431.16;6173079;23;20032;-77
2022/08/15 00:16:47;;;;;;;8.10;7.38;;;;;;;23.86;93.12;100422.38;6181071;23;20025;-77
2022/08/15 00:19:23;;;;;;;10.20;6.70;;;;;;;23.84;93.41;100427.84;6150776;23;20060;-77
2022/08/15 00:21:57;;;;;;;9.02;8.18;;;;;;;23.82;93.68;100423.50;6177468;23;20048;-77
2022/08/15 00:24:30;;;;;;;7.35;6.65;;;;;;;23.81;93.74;100422.63;6178324;23;20459;-77
2022/08/15 00:27:06;;;;;;;9.77;8.00;;;;;;;23.79;93.55;100429.94;6181609;23;20024;-76
2022/08/15 00:29:38;;;;;;;8.98;8.18;;;;;;;23.78;94.03;100425.50;6178018;23;20029;-78
2022/08/15 00:32:16;;;;;;;9.95;7.80;;;;;;;23.78;93.75;100427.28;6158340;23;20028;-77
2022/08/15 00:35:35;;;;;;;9.07;7.45;;;;;;;23.74;94.05;100414.03;6163701;23;20017;-77
2022/08/15 00:37:56;;;;;;;7.97;7.15;;;;;;;23.73;94.53;100424.88;6177764;23;20016;-78
2022/08/15 00:43:49;;;;;;;10.10;7.85;;;;;;;23.69;95.34;100407.19;6111257;23;20032;-76
2022/08/15 00:46:18;;;;;;;8.88;7.80;;;;;;;23.66;95.72;100410.91;6170031;23;20474;-78
2022/08/15 00:48:51;;;;;;;8.55;7.78;;;;;;;23.65;96.20;100419.97;6157997;23;20458;-76
2022/08/15 00:51:55;;;;;;;9.18;7.95;;;;;;;23.62;96.02;100404.00;6132278;23;20031;-77
2022/08/15 00:54:37;;;;;;;12.32;8.00;;;;;;;23.58;96.45;100402.44;6121384;23;20539;-76
2022/08/15 00:57:38;;;;;;;11.20;8.45;;;;;;;23.55;96.85;100407.97;6177705;23;20021;-77
2022/08/15 01:00:37;;;;;;;10.65;7.32;;;;;;;23.50;97.39;100402.03;6175972;23;20021;-77
2022/08/15 01:03:31;;;;;;;9.52;7.40;;;;;;;23.44;97.77;100408.63;6147914;23;20025;-76
2022/08/15 01:06:23;;;;;;;14.40;7.90;;;;;;;23.39;97.98;100399.94;6154560;23;20025;-77
2022/08/15 01:09:01;;;;;;;8.48;7.50;;;;;;;23.35;98.21;100399.25;6111437;23;20021;-76
2022/08/15 01:11:49;;;;;;;8.93;7.60;;;;;;;23.32;98.05;100391.34;6176476;23;20112;-76
2022/08/15 01:14:18;;;;;;;8.45;7.75;;;;;;;23.31;97.95;100394.16;6155960;23;20020;-77
2022/08/15 01:17:07;;;;;;;8.77;7.97;;;;;;;23.26;98.18;100397.09;6183242;23;20036;-76
2022/08/15 01:19:48;;;;;;;9.50;8.60;;;;;;;23.22;98.06;100400.91;6182279;23;20052;-77
2022/08/15 01:23:11;;;;;;;8.65;7.60;;;;;;;23.18;98.56;100396.66;6164129;23;20032;-77
2022/08/15 01:25:44;;;;;;;8.77;7.40;;;;;;;23.14;98.89;100390.59;6103878;23;20021;-77
2022/08/15 01:28:40;;;;;;;8.32;7.53;;;;;;;23.11;99.21;100395.28;6174423;23;20020;-77
2022/08/15 01:31:17;;;;;;;7.72;7.03;;;;;;;23.09;100.00;100399.88;6173063;23;20052;-77
2022/08/15 01:33:53;;;;;;;11.50;8.15;;;;;;;23.08;99.87;100390.06;6172755;23;20028;-77
2022/08/15 01:36:26;;;;;;;8.95;7.45;;;;;;;23.07;99.92;100396.41;6180365;23;20021;-77
2022/08/15 01:39:27;;;;;;;12.82;7.70;;;;;;;23.06;100.00;100391.97;6163415;23;20075;-77
2022/08/15 01:42:06;;;;;;;8.88;8.00;;;;;;;23.03;100.00;100389.44;6182821;23;20021;-78
2022/08/15 01:44:47;;;;;;;7.70;7.00;;;;;;;23.00;100.00;100393.16;6176171;23;20013;-76
2022/08/15 01:47:47;;;;;;;10.65;8.05;;;;;;;22.97;100.00;100385.28;6179651;23;20017;-77
2022/08/15 01:50:27;;;;;;;9.20;7.50;;;;;;;22.95;100.00;100377.28;6158847;23;20028;-78
2022/08/15 01:53:11;;;;;;;8.57;7.03;;;;;;;22.94;100.00;100383.59;6164030;23;20021;-77
2022/08/15 01:55:52;;;;;;;8.70;7.32;;;;;;;22.92;100.00;100385.50;6171506;23;20024;-76
2022/08/15 01:58:26;;;;;;;11.80;7.72;;;;;;;22.90;100.00;100375.81;6174681;23;20447;-78
2022/08/15 02:01:03;;;;;;;7.50;6.88;;;;;;;22.86;100.00;100382.31;6185166;23;20469;-77
2022/08/15 02:03:33;;;;;;;11.07;7.32;;;;;;;22.85;100.00;100377.88;6180436;23;20016;-77
2022/08/15 02:06:21;;;;;;;8.10;7.38;;;;;;;22.82;100.00;100386.13;6182624;23;20492;-78
2022/08/15 02:09:08;;;;;;;8.70;7.90;;;;;;;22.81;100.00;100382.56;6130905;23;20029;-77
2022/08/15 02:12:00;;;;;;;8.60;7.00;;;;;;;22.78;100.00;100377.38;6152189;23;20021;-77
2022/08/15 02:14:33;;;;;;;9.38;8.15;;;;;;;22.74;100.00;100373.97;6173145;23;20298;-77
2022/08/15 02:17:06;;;;;;;10.90;7.85;;;;;;;22.72;100.00;100369.63;6182799;23;20025;-78
2022/08/15 02:19:41;;;;;;;8.48;7.00;;;;;;;22.71;100.00;100378.66;6178931;23;20203;-76
2022/08/15 02:22:22;;;;;;;10.85;8.02;;;;;;;22.69;100.00;100377.88;6179581;23;20446;-77
2022/08/15 02:24:57;;;;;;;10.40;7.00;;;;;;;22.68;100.00;100382.34;6162494;23;20021;-76
2022/08/15 02:27:33;;;;;;;10.07;7.55;;;;;;;22.67;100.00;100371.72;6168969;23;20366;-76
2022/08/15 02:30:16;;;;;;;8.88;8.00;;;;;;;22.66;100.00;100368.16;6159449;23;20359;-76
2022/08/15 02:32:47;;;;;;;12.50;7.97;;;;;;;22.66;100.00;100356.53;6180036;23;20249;-78
2022/08/15 02:35:17;;;;;;;8.35;7.65;;;;;;;22.67;100.00;100347.56;6155812;23;20016;-78
2022/08/15 02:37:49;;;;;;;11.30;7.80;;;;;;;22.67;100.00;100347.56;6158123;23;20028;-76
2022/08/15 02:40:29;;;;;;;8.20;7.35;;;;;;;22.66;100.00;100353.84;6157565;23;20213;-76
2022/08/15 02:43:16;;;;;;;12.35;8.38;;;;;;;22.65;100.00;100347.63;6170300;23;20035;-77
2022/08/15 02:45:49;;;;;;;9.68;8.70;;;;;;;22.63;100.00;100349.53;6181683;23;20017;-78
2022/08/15 02:48:42;;;;;;;10.00;8.60;;;;;;;22.62;100.00;100346.94;6147839;23;20052;-76
2022/08/15 02:51:27;;;;;;;8.38;7.35;;;;;;;22.60;100.00;100347.00;6126582;23;20021;-77
2022/08/15 02:54:19;;;;;;;9.52;8.57;;;;;;;22.58;100.00;100343.53;6180026;23;20478;-77
2022/08/15 02:57:09;;;;;;;10.57;7.93;;;;;;;22.56;100.00;100335.56;6162678;23;20013;-77
2022/08/15 02:59:42;;;;;;;10.85;8.35;;;;;;;22.54;100.00;100328.56;6180308;23;20667;-76
2022/08/15 03:02:21;;;;;;;10.15;9.02;;;;;;;22.52;100.00;100325.09;6131699;23;20348;-78
2022/08/15 03:05:08;;;;;;;10.07;8.88;;;;;;;22.51;100.00;100321.56;6180910;23;20024;-77
2022/08/15 03:07:38;;;;;;;12.07;8.20;;;;;;;22.48;100.00;100321.69;6131042;23;20036;-77
2022/08/15 03:10:07;;;;;;;13.82;8.02;;;;;;;22.48;100.00;100318.16;6157823;23;20024;-77
2022/08/15 03:13:03;;;;;;;9.40;8.52;;;;;;;22.45;100.00;100326.38;6143885;23;20017;-77
2022/08/15 03:15:41;;;;;;;9.65;8.30;;;;;;;22.43;100.00;100323.75;6177975;23;20047;-76
2022/08/15 03:18:12;;;;;;;9.68;8.68;;;;;;;22.41;100.00;100323.00;6173751;23;20031;-78
2022/08/15 03:21:04;;;;;;;10.13;8.30;;;;;;;22.41;100.00;100319.44;6172359;23;20025;-77
2022/08/15 03:23:34;;;;;;;9.95;8.88;;;;;;;22.39;100.00;100320.38;6177844;23;20028;-76
2022/08/15 03:26:11;;;;;;;10.52;9.52;;;;;;;22.38;100.00;100333.88;6143470;23;20020;-77
2022/08/15 03:29:04;;;;;;;10.32;9.40;;;;;;;22.35;100.00;100324.19;6184450;23;20024;-77
2022/08/15 03:31:39;;;;;;;10.88;9.93;;;;;;;22.36;100.00;100325.94;6181605;23;20021;-77
2022/08/15 03:34:17;;;;;;;9.80;8.80;;;;;;;22.34;100.00;100319.78;6154697;23;20024;-77
2022/08/15 03:36:57;;;;;;;13.25;10.00;;;;;;;22.32;100.00;100320.78;6172295;23;20028;-77
2022/08/15 03:39:28;;;;;;;11.43;10.43;;;;;;;22.31;100.00;100322.63;6176139;23;20629;-77
2022/08/15 03:41:59;;;;;;;10.93;9.82;;;;;;;22.30;100.00;100320.00;6160804;23;20020;-76
2022/08/15 03:44:32;;;;;;;14.10;10.45;;;;;;;22.28;100.00;100320.09;6167001;23;20411;-76
2022/08/15 03:47:02;;;;;;;10.13;8.93;;;;;;;22.26;100.00;100327.34;6181290;23;20028;-77
2022/08/15 03:49:33;;;;;;;12.50;10.73;;;;;;;22.24;100.00;100315.81;6148534;23;20520;-77
2022/08/15 03:52:21;;;;;;;10.75;9.75;;;;;;;22.25;100.00;100309.53;6117354;23;20486;-77
2022/08/15 03:55:06;;;;;;;11.50;9.52;;;;;;;22.24;100.00;100307.75;6181379;23;20378;-76
2022/08/15 03:57:45;;;;;;;11.90;10.68;;;;;;;22.23;100.00;100305.16;6159813;23;20234;-76
2022/08/15 04:00:42;;;;;;;14.18;10.70;;;;;;;22.22;100.00;100309.66;6149802;23;20017;-77
2022/08/15 04:03:25;;;;;;;13.30;10.65;;;;;;;22.22;100.00;100300.75;6179292;23;20032;-76
2022/08/15 04:06:01;;;;;;;10.50;9.55;;;;;;;22.19;100.00;100304.44;6171525;23;20017;-77
2022/08/15 04:08:36;;;;;;;10.98;9.93;;;;;;;22.18;100.00;100300.91;6169423;23;20359;-77
2022/08/15 04:11:29;;;;;;;10.35;9.38;;;;;;;22.16;100.00;100301.94;6156767;23;20032;-79
2022/08/15 04:14:10;;;;;;;11.98;10.35;;;;;;;22.14;100.00;100302.03;6152446;23;20463;-76
2022/08/15 04:16:59;;;;;;;10.43;9.00;;;;;;;22.13;100.00;100308.31;6177842;23;20013;-76
2022/08/15 04:19:42;;;;;;;11.45;10.07;;;;;;;22.11;100.00;100304.88;6135740;23;20028;-77
2022/08/15 04:22:31;;;;;;;11.73;10.57;;;;;;;22.10;100.00;100303.16;6182574;23;20021;-77
2022/08/15 04:25:16;;;;;;;11.77;10.68;;;;;;;22.09;100.00;100301.41;6150596;23;20028;-77
2022/08/15 04:27:51;;;;;;;11.65;9.80;;;;;;;22.07;100.00;100297.06;6144897;23;20036;-79
2022/08/15 04:30:29;;;;;;;12.43;10.30;;;;;;;22.07;100.00;100297.06;6159614;23;20017;-78
2022/08/15 04:33:21;;;;;;;13.00;9.70;;;;;;;22.06;100.00;100300.69;6143852;23;20025;-77
2022/08/15 04:36:12;;;;;;;10.02;9.18;;;;;;;22.04;100.00;100300.81;6171764;23;20020;-77
2022/08/15 04:38:52;;;;;;;10.10;9.10;;;;;;;22.03;100.00;100304.41;6154602;23;20120;-77
2022/08/15 04:41:21;;;;;;;10.55;9.30;;;;;;;22.02;100.00;100307.19;6149355;23;20036;-76
2022/08/15 04:44:08;;;;;;;10.02;9.07;;;;;;;21.98;100.00;100302.00;6128256;23;20155;-76
2022/08/15 04:46:51;;;;;;;12.82;9.30;;;;;;;21.96;100.00;100300.31;6169510;23;20016;-77
2022/08/15 04:49:20;;;;;;;10.13;8.77;;;;;;;21.94;100.00;100300.41;6178049;23;20347;-77
2022/08/15 04:51:51;;;;;;;10.20;9.10;;;;;;;21.91;100.00;100297.91;6172218;23;20025;-76
2022/08/15 04:54:22;;;;;;;10.68;9.57;;;;;;;21.89;100.00;100297.09;6131450;23;20443;-77
2022/08/15 04:57:09;;;;;;;10.48;9.48;;;;;;;21.88;100.00;100299.88;6159376;23;20012;-76
2022/08/15 04:59:46;;;;;;;11.25;10.05;;;;;;;21.88;100.00;100299.88;6138118;23;20359;-76
2022/08/15 05:03:03;;;;;;;10.30;9.32;;;;;;;21.88;100.00;100297.19;6164751;23;20146;-77
2022/08/15 05:05:37;;;;;;;11.60;10.13;;;;;;;;;;6185989;23;20017;-78
2022/08/15 05:08:08;;;;;;;9.77;8.68;;;;;;;21.89;100.00;100296.22;6161429;23;20048;-77
2022/08/15 05:10:48;;;;;;;10.25;8.88;;;;;;;21.89;100.00;100294.44;6151338;23;20017;-78
2022/08/15 05:13:20;;;;;;;10.30;9.40;;;;;;;21.90;100.00;100298.81;6184216;23;20020;-77
2022/08/15 05:15:51;;;;;;;11.98;9.35;;;;;;;21.89;100.00;100293.53;6124882;23;20020;-77
2022/08/15 05:18:32;;;;;;;10.70;8.77;;;;;;;;;;6148502;23;20351;-77
2022/08/15 05:21:01;;;;;;;9.55;8.48;;;;;;;21.89;100.00;100296.22;6180990;23;20218;-77
2022/08/15 05:23:32;;;;;;;10.48;9.40;;;;;;;21.89;100.00;100290.84;6175471;23;20013;-77
2022/08/15 05:26:23;;;;;;;10.65;9.57;;;;;;;21.90;100.00;100285.41;6155398;23;20017;-77
2022/08/15 05:29:12;;;;;;;10.40;9.48;;;;;;;21.92;100.00;100296.94;6149457;23;20024;-77
2022/08/15 05:31:41;;;;;;;10.82;9.73;;;;;;;21.95;100.00;100290.56;6129596;23;20467;-78
2022/08/15 05:34:13;;;;;;;12.45;9.25;;;;;;;21.97;100.00;100304.75;6129642;23;20028;-77
2022/08/15 05:37:03;;;;;;;9.80;8.80;;;;;;;21.98;100.00;100293.06;6161496;23;20155;-76
2022/08/15 05:39:33;;;;;;;;;;;;;;;21.97;100.00;100296.69;6177286;23;20032;-77
2022/08/15 05:42:28;;;;;;;11.52;9.90;;;;;;;21.98;100.00;100299.31;6158193;23;20407;-77
2022/08/15 05:45:11;;;;;;;12.98;9.15;;;;;;;21.99;100.00;100297.47;6172406;23;20024;-77
2022/08/15 05:48:25;;;;;;;12.18;9.98;;;;;;;22.02;100.00;100302.66;6181570;23;20351;-79
2022/08/15 05:51:13;;;;;;;12.68;8.98;;;;;;;22.06;100.00;100298.00;6181538;23;20021;-81
2022/08/15 05:54:21;;;;;;;11.95;8.57;;;;;;;22.12;100.00;100301.25;6158233;23;20017;-80
2022/08/15 05:57:12;;;;;;;10.68;9.48;;;;;;;22.19;100.00;100305.34;6173891;23;20024;-78
2022/08/15 05:59:52;;;;;;;9.93;8.93;;;;;;;22.25;100.00;100296.13;6182331;23;20032;-80
2022/08/15 06:02:31;;;;;;;9.68;8.65;;;;;;;22.30;100.00;100290.50;6158333;23;20017;-80
2022/08/15 06:05:20;;;;;;;10.30;8.88;;;;;;;22.32;100.00;100294.81;6160536;23;20021;-80
2022/08/15 06:08:08;;;;;;;8.93;7.97;;;;;;;22.37;100.00;100294.59;6178698;23;20017;-80
2022/08/15 06:11:12;;;;;;;11.20;9.18;;;;;;;22.43;100.00;100294.25;6185655;23;20021;-79
2022/08/15 06:13:49;;;;;;;19.15;9.55;;;;;;;22.48;100.00;100296.69;6161116;23;20021;-78
2022/08/15 06:16:43;;;;;;;10.20;9.25;;;;;;;22.52;100.00;100293.72;6166662;23;20017;-79
2022/08/15 06:19:26;;;;;;;10.73;8.57;;;;;;;22.57;100.00;100288.97;6178531;23;20020;-79
2022/08/15 06:22:41;;;;;;;13.00;9.32;;;;;;;22.64;100.00;100296.69;6172276;23;20359;-75
2022/08/15 06:25:18;;;;;;;10.38;9.38;;;;;;;22.72;100.00;100289.06;6170192;23;20032;-76
2022/08/15 06:28:08;;;;;;;13.00;9.25;;;;;;;22.77;100.00;100293.22;6157597;23;20021;-75
2022/08/15 06:31:20;;;;;;;11.38;9.80;;;;;;;22.85;100.00;100290.09;6168915;23;20021;-75
2022/08/15 06:34:09;;;;;;;10.68;9.35;;;;;;;22.96;100.00;100292.19;6177143;23;20021;-76
2022/08/15 06:37:14;;;;;;;10.32;9.32;;;;;;;23.05;100.00;100288.13;6164731;23;20021;-76
2022/08/15 06:40:09;;;;;;;10.52;9.52;;;;;;;23.11;100.00;100287.78;6145847;23;20028;-76
2022/08/15 06:42:58;;;;;;;9.73;8.82;;;;;;;23.19;100.00;100280.13;6182153;23;20481;-76
2022/08/15 06:45:49;;;;;;;10.75;9.02;;;;;;;23.27;100.00;100287.72;6135921;23;20025;-76
2022/08/15 06:48:22;;;;;;;10.60;9.60;;;;;;;23.33;100.00;100292.78;6157467;23;20017;-76
2022/08/15 06:51:12;;;;;;;10.07;9.15;;;;;;;23.44;100.00;100293.00;6167319;23;20013;-76
2022/08/15 06:53:55;;;;;;;10.13;9.23;;;;;;;23.61;100.00;100297.38;6152882;23;20027;-76
2022/08/15 06:56:39;;;;;;;10.25;8.65;;;;;;;23.79;100.00;100305.31;6152845;23;20024;-75
2022/08/15 06:59:13;;;;;;;9.93;8.30;;;;;;;23.97;99.32;100303.31;6180435;23;20444;-77
2022/08/15 07:02:09;;;;;;;14.57;9.25;;;;;;;24.09;98.43;100311.50;6141182;23;20620;-75
2022/08/15 07:05:20;;;;;;;15.32;7.97;;;;;;;24.27;98.13;100308.63;6179897;23;20031;-75
2022/08/15 07:08:00;;;;;;;11.25;9.55;;;;;;;24.39;96.51;100320.47;6153292;23;20017;-76
2022/08/15 07:10:31;;;;;;;10.20;7.68;;;;;;;24.41;94.29;100311.34;6153322;23;20249;-77
2022/08/15 07:13:12;;;;;;;16.27;9.05;;;;;;;24.41;94.75;100305.09;6158360;23;20027;-76
2022/08/15 07:16:08;;;;;;;12.52;8.10;;;;;;;24.42;94.89;100304.09;6180503;23;20225;-76
2022/08/15 07:18:51;;;;;;;17.35;9.85;;;;;;;24.42;94.63;100315.75;6161444;23;20017;-76
2022/08/15 07:21:39;;;;;;;11.23;8.50;;;;;;;24.42;94.59;100320.28;6164582;23;20221;-77
2022/08/15 07:24:27;;;;;;;10.85;9.85;;;;;;;24.40;94.70;100311.44;6151161;23;20028;-76
2022/08/15 07:27:04;;;;;;;10.10;9.23;;;;;;;24.40;95.15;100320.34;6182160;23;20021;-76
2022/08/15 07:29:56;;;;;;;13.95;9.02;;;;;;;24.41;94.77;100318.56;6179465;23;20048;-75
2022/08/15 07:32:52;;;;;;;10.00;8.75;;;;;;;24.40;93.55;100320.34;6122389;23;20301;-75
2022/08/15 07:35:28;;;;;;;9.18;8.38;;;;;;;24.38;94.23;100314.22;6177257;23;20013;-76
2022/08/15 07:38:06;;;;;;;10.13;9.13;;;;;;;24.44;93.97;100316.53;6152630;23;20044;-76
2022/08/15 07:41:22;;;;;;;8.48;7.55;;;;;;;24.51;93.26;100314.31;6181535;23;20021;-76
2022/08/15 07:44:15;;;;;;;11.77;7.75;;;;;;;24.57;93.09;100318.47;6149098;23;20359;-76
2022/08/15 07:47:01;;;;;;;14.30;7.93;;;;;;;24.61;92.79;100311.91;6157861;23;20025;-75
2022/08/15 07:49:34;;;;;;;8.18;7.40;;;;;;;24.72;91.79;100317.47;6160833;23;20013;-76
2022/08/15 07:52:20;;;;;;;13.32;6.95;;;;;;;24.75;91.36;100316.44;6135692;23;20028;-77
2022/08/15 07:55:19;;;;;;;12.30;7.53;;;;;;;24.75;90.70;100317.28;6169463;23;20025;-78
2022/08/15 07:58:17;;;;;;;10.57;8.05;;;;;;;24.89;90.98;100314.56;6184820;23;20009;-77
2022/08/15 08:01:22;;;;;;;11.75;7.25;;;;;;;25.05;89.36;100313.56;6176102;23;20025;-77
2022/08/15 08:04:09;;;;;;;14.38;7.30;;;;;;;25.19;89.05;100315.34;6166828;23;20016;-77
2022/08/15 08:07:00;;;;;;;10.10;7.57;;;;;;;25.29;87.47;100320.06;6126788;23;20450;-76
2022/08/15 08:09:40;;;;;;;8.05;7.25;;;;;;;25.37;87.76;100307.88;6173395;23;20028;-76
2022/08/15 08:12:12;;;;;;;7.45;6.75;;;;;;;25.44;87.53;100310.09;6168067;23;20017;-76
2022/08/15 08:15:02;;;;;;;7.88;6.53;;;;;;;25.49;86.81;100313.31;6146813;23;20025;-77
2022/08/15 08:17:50;;;;;;;8.02;6.70;;;;;;;25.56;87.41;100308.38;6168465;23;20146;-76
2022/08/15 08:21:03;;;;;;;7.28;6.68;;;;;;;25.66;86.68;100319.41;6150852;23;20043;-76
2022/08/15 08:23:50;;;;;;;7.60;6.80;;;;;;;25.71;85.39;100313.69;6169722;23;20361;-76
2022/08/15 08:26:49;;;;;;;7.20;6.03;;;;;;;25.77;84.04;100314.13;6178586;23;20028;-79
2022/08/15 08:29:37;;;;;;;8.13;6.55;;;;;;;25.85;84.02;100306.38;6185151;23;20470;-76
2022/08/15 08:32:35;;;;;;;5.55;5.03;;;;;;;25.99;80.17;100300.06;6150691;23;20215;-78
2022/08/15 08:35:22;;;;;;;4.93;4.45;;;;;;;26.17;80.06;100308.69;6167722;23;20020;-77
2022/08/15 08:38:22;;;;;;;6.25;5.35;;;;;;;26.41;80.05;100305.22;6175110;23;20120;-77
2022/08/15 08:41:28;;;;;;;7.28;4.70;;;;;;;26.72;78.38;100311.97;6144449;23;20032;-77
2022/08/15 08:44:16;;;;;;;4.93;4.43;;;;;;;26.98;75.72;100314.63;6184799;23;20694;-76
2022/08/15 08:46:56;;;;;;;8.95;4.70;;;;;;;27.15;71.21;100308.81;6182292;23;20562;-77
2022/08/15 08:49:58;;;;;;;4.75;4.45;;;;;;;27.29;71.36;100310.50;6166469;23;20013;-78
2022/08/15 08:53:11;;;;;;;4.70;4.20;;;;;;;27.39;71.43;100298.03;6180854;23;20021;-78
2022/08/15 08:55:50;;;;;;;4.78;3.10;;;;;;;27.56;70.32;100298.56;6154845;23;20324;-78
2022/08/15 08:58:36;;;;;;;4.35;3.90;;;;;;;27.70;70.25;100301.06;6146855;23;20025;-77
2022/08/15 09:01:17;;;;;;;4.20;3.90;;;;;;;27.80;68.44;100295.81;6185653;23;20021;-77
2022/08/15 09:03:53;;;;;;;4.35;3.92;;;;;;;27.93;69.92;100302.00;6157466;23;20298;-77
2022/08/15 09:06:29;;;;;;;4.20;3.90;;;;;;;27.99;71.16;100301.53;6132865;23;20025;-77
2022/08/15 09:09:07;;;;;;;8.20;5.03;;;;;;;27.99;72.88;100300.66;6181632;23;20025;-77
2022/08/15 09:11:47;;;;;;;6.45;4.65;;;;;;;27.92;72.84;100300.31;6168531;23;20028;-78
2022/08/15 09:14:37;;;;;;;5.63;5.15;;;;;;;27.81;73.55;100300.25;6180927;23;20328;-77
2022/08/15 09:17:29;;;;;;;5.13;4.57;;;;;;;27.74;74.22;100289.03;6154706;23;20351;-78
2022/08/15 09:20:16;;;;;;;5.22;4.53;;;;;;;27.73;72.34;100295.44;6162846;23;20024;-78
2022/08/15 09:22:49;;;;;;;6.25;4.65;;;;;;;27.64;72.54;100303.38;6181542;23;20029;-79
2022/08/15 09:25:23;;;;;;;5.97;4.22;;;;;;;27.60;72.50;100289.25;6185063;23;20029;-77
2022/08/15 09:28:18;;;;;;;6.45;4.53;;;;;;;27.63;74.36;100291.69;6150478;23;20368;-78
2022/08/15 09:31:06;;;;;;;5.93;4.80;;;;;;;27.74;73.92;100290.88;6184437;23;20017;-78
2022/08/15 09:34:02;;;;;;;4.30;3.90;;;;;;;27.75;72.31;100293.47;6159966;23;20032;-79
2022/08/15 09:37:00;;;;;;;7.28;3.88;;;;;;;27.74;70.75;100299.84;6168080;23;20398;-79
2022/08/15 09:39:38;;;;;;;6.30;3.63;;;;;;;27.67;70.06;100290.47;6187142;23;20017;-78
2022/08/15 09:42:22;;;;;;;4.13;3.78;;;;;;;27.60;70.21;100289.25;6145759;23;20178;-78
2022/08/15 09:45:36;;;;;;;4.10;3.37;;;;;;;27.66;69.44;100285.19;6158928;23;20620;-78
2022/08/15 09:48:40;;;;;;;4.22;2.97;;;;;;;27.77;70.08;100288.78;6153349;23;20017;-78
2022/08/15 09:51:36;;;;;;;4.72;3.38;;;;;;;27.92;69.31;100289.47;6184699;23;20454;-78
2022/08/15 09:54:22;;;;;;;5.88;3.25;;;;;;;28.06;68.09;100279.41;6177106;23;20021;-79
2022/08/15 09:57:22;;;;;;;10.07;3.95;;;;;;;28.16;67.70;100272.25;6174305;23;20245;-78
2022/08/15 09:59:58;;;;;;;3.35;3.05;;;;;;;28.33;68.77;100276.31;6136889;23;20086;-78
2022/08/15 10:02:40;;;;;;;3.92;3.50;;;;;;;28.51;67.29;100273.97;6151280;23;20025;-78
2022/08/15 10:05:40;;;;;;;3.17;2.42;;;;;;;28.66;66.02;100272.75;6149744;23;20032;-78
2022/08/15 10:08:13;;;;;;;3.47;3.28;;;;;;;28.84;64.23;100264.09;6165736;23;20035;-78
2022/08/15 10:11:11;;;;;;;4.00;2.78;;;;;;;28.88;63.23;100276.41;6181508;23;20159;-78
2022/08/15 10:13:39;;;;;;;2.92;2.72;;;;;;;28.93;62.41;100275.03;6155340;23;20036;-79
2022/08/15 10:16:39;;;;;;;3.35;3.03;;;;;;;29.05;59.34;100266.84;6186590;23;20021;-79
2022/08/15 10:19:32;;;;;;;3.63;2.95;;;;;;;29.17;59.62;100268.59;6186531;23;20013;-79
2022/08/15 10:22:23;;;;;;;2.90;2.70;;;;;;;29.31;57.17;100276.41;6184056;23;20036;-79
2022/08/15 10:25:36;;;;;;;3.67;3.37;;;;;;;29.38;55.11;100284.91;6186388;23;20013;-79
2022/08/15 10:28:10;;;;;;;3.50;2.90;;;;;;;29.38;57.23;100274.03;6185504;23;20039;-80
2022/08/15 10:31:00;;;;;;;2.53;2.42;;;;;;;29.40;57.18;100277.50;6148190;23;20021;-79
2022/08/15 10:33:39;;;;;;;2.63;2.40;;;;;;;29.42;58.30;100270.06;6185824;23;20021;-79
2022/08/15 10:36:14;;;;;;;3.10;2.30;;;;;;;29.49;58.73;100267.69;6186687;23;20025;-80
2022/08/15 10:38:57;;;;;;;4.50;2.60;;;;;;;29.47;59.77;100272.38;6165006;23;20021;-79
2022/08/15 10:41:44;;;;;;;3.13;2.92;;;;;;;29.43;60.45;100273.63;6186865;23;20050;-78
2022/08/15 10:44:21;;;;;;;5.03;3.25;;;;;;;29.41;60.49;100279.19;6160304;23;20033;-78
2022/08/15 10:47:15;;;;;;;3.50;3.22;;;;;;;29.42;60.76;100275.50;6145996;23;20191;-78
2022/08/15 10:50:14;;;;;;;8.77;3.15;;;;;;;29.34;62.06;100273.44;6181773;23;20347;-78
2022/08/15 10:52:53;;;;;;;4.03;3.63;;;;;;;29.23;59.85;100280.78;6142384;23;20024;-77
2022/08/15 10:55:27;;;;;;;5.32;3.45;;;;;;;29.18;62.40;100283.00;6164860;23;20017;-78
2022/08/15 10:58:32;;;;;;;5.00;3.42;;;;;;;29.05;63.06;100273.13;6179427;23;20032;-78
2022/08/15 11:01:22;;;;;;;7.32;3.78;;;;;;;28.99;64.23;100278.22;6176476;23;20159;-77
2022/08/15 11:03:55;;;;;;;3.83;3.60;;;;;;;28.97;65.47;100278.34;6179062;23;20055;-78
2022/08/15 11:06:48;;;;;;;3.88;3.58;;;;;;;29.02;67.34;100277.94;6180722;23;20362;-79
2022/08/15 11:09:23;;;;;;;4.47;4.10;;;;;;;29.11;70.39;100274.47;6127004;23;20029;-78
2022/08/15 11:12:00;;;;;;;3.92;3.63;;;;;;;29.10;70.06;100272.78;6161680;23;20020;-79
2022/08/15 11:14:34;;;;;;;5.75;3.78;;;;;;;28.97;69.12;100279.19;6174017;23;20087;-79
2022/08/15 11:17:14;;;;;;;6.47;3.85;;;;;;;28.86;69.21;100281.94;6176774;23;20706;-77
2022/08/15 11:19:49;;;;;;;4.45;3.85;;;;;;;28.72;70.12;100288.50;6180543;23;20473;-77
2022/08/15 11:22:52;;;;;;;6.45;4.10;;;;;;;28.69;71.36;100286.03;6130409;23;20024;-77
2022/08/15 11:25:27;;;;;;;4.43;4.05;;;;;;;28.72;69.62;100293.09;6164529;23;20017;-76
2022/08/15 11:28:10;;;;;;;4.65;4.25;;;;;;;28.72;69.09;100277.66;6175509;23;20634;-77
2022/08/15 11:31:04;;;;;;;7.10;3.95;;;;;;;28.73;70.14;100284.84;6169662;23;20017;-77
2022/08/15 11:33:43;;;;;;;6.85;4.20;;;;;;;28.79;69.50;100286.19;6154869;23;20021;-77
2022/08/15 11:36:23;;;;;;;4.82;4.28;;;;;;;28.82;68.30;100294.03;6144854;23;20416;-77
2022/08/15 11:39:02;;;;;;;4.47;3.72;;;;;;;28.81;68.37;100286.03;6185078;23;20025;-77
2022/08/15 11:41:55;;;;;;;5.55;3.85;;;;;;;28.77;67.03;100283.59;6161865;23;20017;-77
2022/08/15 11:44:29;;;;;;;;;;;;;;;28.81;67.38;100283.31;6180720;23;20310;-77
2022/08/15 11:46:58;;;;;;;7.65;4.05;;;;;;;28.84;67.35;100285.78;6180201;23;19916;-77
2022/08/15 11:49:32;;;;;;;5.30;4.30;;;;;;;28.84;65.95;100280.38;6133288;23;20123;-77
2022/08/15 11:52:07;;;;;;;4.15;3.83;;;;;;;28.88;67.14;100281.81;6182368;23;20013;-78
2022/08/15 11:55:15;;;;;;;6.10;4.22;;;;;;;29.00;66.93;100280.81;6169285;23;20032;-78
2022/08/15 11:57:55;;;;;;;5.78;4.32;;;;;;;29.07;65.87;100282.00;6157164;23;20489;-78
2022/08/15 12:00:38;;;;;;;5.07;3.95;;;;;;;29.13;65.96;100281.53;6178518;23;20028;-78
2022/08/15 12:03:32;;;;;;;7.28;4.82;;;;;;;29.15;66.89;100289.56;6177737;23;20032;-78
2022/08/15 12:06:30;;;;;;;5.60;5.20;;;;;;;29.07;67.15;100286.56;6181419;23;20332;-78
2022/08/15 12:09:27;;;;;;;5.70;5.20;;;;;;;28.99;67.77;100291.78;6181368;23;20371;-77
2022/08/15 12:12:50;;;;;;;6.10;5.28;;;;;;;28.85;67.66;100287.53;6157446;23;20142;-77
2022/08/15 12:15:41;;;;;;;4.45;4.15;;;;;;;28.86;70.19;100305.50;6092396;23;20486;-78
2022/08/15 12:18:20;;;;;;;8.50;5.50;;;;;;;28.90;67.86;100290.69;6114100;23;20585;-78
2022/08/15 12:21:12;;;;;;;7.82;6.85;;;;;;;28.97;67.54;100286.50;6158967;23;20209;-78
2022/08/15 12:23:41;;;;;;;11.90;6.70;;;;;;;29.06;67.23;100290.28;6169703;23;20032;-78
2022/08/15 12:26:21;;;;;;;12.93;7.68;;;;;;;29.05;66.73;100294.84;6160971;23;20257;-77
2022/08/15 12:29:10;;;;;;;11.23;8.82;;;;;;;28.99;66.66;100287.22;6171003;23;20047;-77
2022/08/15 12:31:41;;;;;;;11.00;8.98;;;;;;;28.92;66.47;100294.13;6178314;23;20351;-78
2022/08/15 12:34:20;;;;;;;10.20;8.75;;;;;;;28.87;66.57;100291.81;6173415;23;20021;-78
2022/08/15 12:37:25;;;;;;;9.50;8.70;;;;;;;28.92;67.30;100292.31;6177634;23;20021;-79
2022/08/15 12:40:09;;;;;;;11.25;9.05;;;;;;;28.96;66.00;100285.63;6180289;23;20024;-77
2022/08/15 12:42:58;;;;;;;10.73;8.43;;;;;;;28.94;66.54;100281.31;6144946;23;20013;-78